Time;durP1;ratioP1;P1;durP2;ratioP2;P2;SDS_P1;SDS_P2;PMS_P1;PMS_P2;Temp;Humidity;BMP_temperature;BMP_pressure;BME280_temperature;BME280_humidity;BME280_pressure;Samples;Min_cycle;Max_cycle;Signal;HPM_P1;HPM_P2
2023/06/05 00:02:17;;;;;;;;;;;;;;;16.61;39.10;98112.22;5094293;28;19973;-58
2023/06/05 00:04:44;;;;;;;;;;;;;;;16.69;38.89;98107.78;5095139;28;19927;-61
2023/06/05 00:07:14;;;;;;;;;;;;;;;16.62;38.73;98113.03;5091856;28;19932;-58
2023/06/05 00:09:42;;;;;;;;;;;;;;;16.57;38.83;98116.81;5095210;28;20058;-58
2023/06/05 00:12:10;;;;;;;;;;;;;;;16.50;39.23;98117.38;5094535;28;20369;-59
2023/06/05 00:14:41;;;;;;;;;;;;;;;16.44;39.02;98117.97;5087793;28;20381;-58
2023/06/05 00:17:10;;;;;;;;;;;;;;;16.40;39.14;98111.56;5094264;28;20014;-59
2023/06/05 00:19:38;;;;;;;;;;;;;;;16.39;39.37;98112.72;5094471;28;19966;-60
2023/06/05 00:22:06;;;;;;;;;;;;;;;16.47;39.25;98111.81;5091432;28;20314;-58
2023/06/05 00:24:33;;;;;;;;;;;;;;;16.40;38.94;98117.06;5121237;27;20023;-58
2023/06/05 00:27:01;;;;;;;;;;;;;;;16.39;39.56;98109.97;5090951;28;19924;-58
2023/06/05 00:29:28;;;;;;;;;;;;;;;16.39;39.46;98119.00;5091305;28;19955;-58
2023/06/05 00:31:56;;;;;;;;;;;;;;;16.39;39.31;98121.75;5091794;28;19924;-62
2023/06/05 00:34:25;;;;;;;;;;;;;;;16.25;39.34;98115.84;5131390;27;19930;-58
2023/06/05 00:36:53;;;;;;;;;;;;;;;16.23;39.60;98113.41;5092882;28;20041;-59
2023/06/05 00:39:21;;;;;;;;;;;;;;;16.28;39.67;98114.34;5092669;28;19963;-59
2023/06/05 00:41:49;;;;;;;;;;;;;;;16.22;39.95;98111.81;5085184;28;19920;-59
2023/06/05 00:44:18;;;;;;;;;;;;;;;16.15;39.72;98113.53;5121010;27;19974;-58
2023/06/05 00:46:46;;;;;;;;;;;;;;;16.13;40.07;98111.13;5126325;27;19924;-59
2023/06/05 00:49:14;;;;;;;;;;;;;;;16.16;40.12;98113.19;5089201;28;20253;-58
2023/06/05 00:51:43;;;;;;;;;;;;;;;16.11;39.98;98113.41;5099200;28;19921;-59
2023/06/05 00:54:11;;;;;;;;;;;;;;;16.07;40.30;98109.75;5101141;27;20324;-58
2023/06/05 00:56:39;;;;;;;;;;;;;;;16.02;40.13;98112.72;5121813;27;19920;-59
2023/06/05 00:59:06;;;;;;;;;;;;;;;16.00;40.11;98120.50;5092303;28;19929;-58
2023/06/05 01:01:36;;;;;;;;;;;;;;;15.97;40.08;98118.44;5091189;28;20011;-59
2023/06/05 01:04:04;;;;;;;;;;;;;;;15.96;40.19;98119.56;5126081;27;19920;-58
2023/06/05 01:06:33;;;;;;;;;;;;;;;15.91;40.13;98117.06;5126265;27;19970;-58
2023/06/05 01:09:05;;;;;;;;;;;;;;;15.83;40.42;98116.03;5093965;28;19920;-58
2023/06/05 01:11:36;;;;;;;;;;;;;;;15.80;40.17;98122.19;5089997;28;19947;-58
2023/06/05 01:14:08;;;;;;;;;;;;;;;15.75;40.23;98118.88;5124899;27;19975;-63
2023/06/05 01:16:35;;;;;;;;;;;;;;;15.75;40.16;98114.19;5115764;27;19924;-58
2023/06/05 01:19:03;;;;;;;;;;;;;;;15.80;40.06;98111.22;5098514;28;19975;-58
2023/06/05 01:21:32;;;;;;;;;;;;;;;15.79;39.60;98114.31;5085959;28;19920;-58
2023/06/05 01:24:01;;;;;;;;;;;;;;;15.75;39.06;98119.66;5120599;27;19925;-58
2023/06/05 01:26:31;;;;;;;;;;;;;;;15.77;39.40;98114.66;5122814;27;20030;-59
2023/06/05 01:28:59;;;;;;;;;;;;;;;15.77;39.63;98111.13;5125829;27;19947;-58
2023/06/05 01:31:28;;;;;;;;;;;;;;;15.77;39.40;98108.38;5100250;28;19932;-58
2023/06/05 01:34:01;;;;;;;;;;;;;;;15.75;39.27;98107.91;5087146;28;19928;-58
2023/06/05 01:36:30;;;;;;;;;;;;;;;15.63;39.33;98112.22;5087913;28;19935;-59
2023/06/05 01:38:59;;;;;;;;;;;;;;;15.64;39.04;98108.34;5088102;28;20367;-58
2023/06/05 01:41:28;;;;;;;;;;;;;;;15.62;39.62;98110.59;5094059;28;19920;-59
2023/06/05 01:43:55;;;;;;;;;;;;;;;15.63;39.42;98114.16;5052971;28;19948;-59
2023/06/05 01:46:24;;;;;;;;;;;;;;;15.62;38.97;98098.84;5090055;28;20594;-58
2023/06/05 01:48:52;;;;;;;;;;;;;;;15.67;38.86;98106.88;5057614;28;19920;-58
2023/06/05 01:51:20;;;;;;;;;;;;;;;15.62;39.19;98107.88;5068156;28;20378;-58
2023/06/05 01:53:48;;;;;;;;;;;;;;;15.55;39.47;98109.53;5056857;28;19924;-58
2023/06/05 01:56:19;;;;;;;;;;;;;;;15.51;39.76;98103.97;5053375;28;19927;-59
2023/06/05 01:58:48;;;;;;;;;;;;;;;15.56;39.07;98106.50;5056329;28;19932;-60
2023/06/05 02:01:22;;;;;;;;;;;;;;;15.57;39.45;98107.28;5077145;28;19973;-58
2023/06/05 02:03:57;;;;;;;;;;;;;;;15.61;39.31;98091.78;5088641;28;19933;-67
2023/06/05 02:06:26;;;;;;;;;;;;;;;15.56;38.96;98101.00;5097589;28;19920;-58
2023/06/05 02:08:54;;;;;;;;;;;;;;;15.51;39.05;98100.44;5097700;28;20011;-68
2023/06/05 02:11:22;;;;;;;;;;;;;;;15.49;39.12;98100.75;5105607;28;20034;-58
2023/06/05 02:13:52;;;;;;;;;;;;;;;15.48;39.48;98104.63;5095080;28;19924;-58
2023/06/05 02:16:20;;;;;;;;;;;;;;;15.43;38.96;98102.09;5105415;28;19928;-58
2023/06/05 02:18:48;;;;;;;;;;;;;;;15.42;39.13;98103.25;5114785;27;19927;-58
2023/06/05 02:21:16;;;;;;;;;;;;;;;15.45;38.94;98102.59;5074065;28;19926;-62
2023/06/05 02:23:45;;;;;;;;;;;;;;;15.43;39.29;98102.91;5100837;28;20324;-58
2023/06/05 02:26:13;;;;;;;;;;;;;;;15.36;38.75;98101.88;5109090;27;20014;-59
2023/06/05 02:28:40;;;;;;;;;;;;;;;15.35;38.97;98103.00;5092338;28;19920;-58
2023/06/05 02:31:15;;;;;;;;;;;;;;;15.37;38.95;98089.78;5093019;28;20273;-60
2023/06/05 02:33:43;;;;;;;;;;;;;;;15.40;38.62;98092.66;5108334;28;19920;-58
2023/06/05 02:36:15;;;;;;;;;;;;;;;15.35;38.82;98097.53;5071859;28;20361;-58
2023/06/05 02:38:44;;;;;;;;;;;;;;;15.40;38.61;98097.31;5072270;28;19920;-58
2023/06/05 02:41:12;;;;;;;;;;;;;;;15.43;38.62;98102.09;5073280;28;19924;-59
2023/06/05 02:43:40;;;;;;;;;;;;;;;15.39;38.54;98088.31;5112908;27;19919;-65
2023/06/05 02:46:09;;;;;;;;;;;;;;;15.32;38.52;98093.53;5092420;28;20032;-59
2023/06/05 02:48:37;;;;;;;;;;;;;;;15.29;38.83;98091.47;5093684;28;19924;-58
2023/06/05 02:51:06;;;;;;;;;;;;;;;15.30;38.81;98087.59;5108092;27;19923;-58
2023/06/05 02:53:34;;;;;;;;;;;;;;;15.33;38.77;98095.13;5092203;28;19926;-58
2023/06/05 02:56:03;;;;;;;;;;;;;;;15.30;39.07;98095.00;5087369;28;19973;-59
2023/06/05 02:58:33;;;;;;;;;;;;;;;15.31;39.45;98085.66;5107658;28;19920;-58
2023/06/05 03:01:02;;;;;;;;;;;;;;;15.34;39.13;98088.53;5082119;28;20349;-58
2023/06/05 03:03:38;;;;;;;;;;;;;;;15.37;39.25;98082.34;5098622;28;19958;-58
2023/06/05 03:06:06;;;;;;;;;;;;;;;15.39;39.05;98084.75;5095048;28;19921;-58
2023/06/05 03:08:40;;;;;;;;;;;;;;;15.36;39.05;98094.47;5089529;28;19930;-59
2023/06/05 03:11:13;;;;;;;;;;;;;;;15.40;39.00;98089.13;5087227;28;20006;-58
2023/06/05 03:13:41;;;;;;;;;;;;;;;15.36;39.03;98090.91;5121974;27;19920;-58
2023/06/05 03:16:10;;;;;;;;;;;;;;;15.33;39.13;98088.84;5083127;28;19920;-58
2023/06/05 03:18:43;;;;;;;;;;;;;;;15.36;39.08;98088.97;5105479;28;19974;-59
2023/06/05 03:21:11;;;;;;;;;;;;;;;15.33;39.33;98091.59;5108865;28;19924;-58
2023/06/05 03:23:40;;;;;;;;;;;;;;;15.33;39.38;98091.59;5134491;27;19920;-62
2023/06/05 03:26:09;;;;;;;;;;;;;;;15.28;39.47;98094.53;5089317;28;20046;-59
2023/06/05 03:28:37;;;;;;;;;;;;;;;15.26;39.58;98097.63;5093216;28;19928;-58
2023/06/05 03:31:10;;;;;;;;;;;;;;;15.22;39.72;98095.88;5109616;28;20056;-60
2023/06/05 03:33:42;;;;;;;;;;;;;;;15.28;39.47;98094.53;5091920;28;19920;-58
2023/06/05 03:36:11;;;;;;;;;;;;;;;15.16;39.68;98096.09;5112537;27;20385;-58
2023/06/05 03:38:40;;;;;;;;;;;;;;;15.22;39.61;98098.63;5127174;27;19964;-62
2023/06/05 03:41:08;;;;;;;;;;;;;;;15.22;39.71;98096.69;5091749;28;19957;-59
2023/06/05 03:43:37;;;;;;;;;;;;;;;15.17;40.07;98108.63;5121392;28;19982;-58
2023/06/05 03:46:05;;;;;;;;;;;;;;;15.08;40.55;98101.66;5088467;28;20434;-61
2023/06/05 03:48:33;;;;;;;;;;;;;;;15.10;40.77;98105.66;5090077;28;19930;-58
2023/06/05 03:51:01;;;;;;;;;;;;;;;15.09;40.56;98109.53;5089133;28;19928;-60
2023/06/05 03:53:30;;;;;;;;;;;;;;;15.09;40.38;98101.31;5099879;28;20358;-58
2023/06/05 03:55:59;;;;;;;;;;;;;;;15.04;40.31;98109.72;5082101;28;19967;-58
2023/06/05 03:58:34;;;;;;;;;;;;;;;15.02;40.35;98105.72;5082554;28;19920;-67
2023/06/05 04:01:04;;;;;;;;;;;;;;;15.01;40.25;98104.13;5122500;27;19920;-59
2023/06/05 04:03:37;;;;;;;;;;;;;;;15.02;40.50;98112.00;5086505;28;19948;-58
2023/06/05 04:06:06;;;;;;;;;;;;;;;15.00;40.66;98117.00;5089909;28;19920;-58
2023/06/05 04:08:35;;;;;;;;;;;;;;;14.98;40.60;98116.56;5091052;28;19970;-59
2023/06/05 04:11:03;;;;;;;;;;;;;;;15.03;40.92;98115.56;5087983;28;20349;-62
2023/06/05 04:13:30;;;;;;;;;;;;;;;15.03;41.13;98116.34;5089886;28;20284;-58
2023/06/05 04:15:58;;;;;;;;;;;;;;;14.97;40.95;98123.16;5090980;28;19926;-64
2023/06/05 04:18:28;;;;;;;;;;;;;;;15.05;40.90;98119.53;5089921;28;19924;-58
2023/06/05 04:20:56;;;;;;;;;;;;;;;15.02;40.72;98122.13;5090150;28;19927;-61
2023/06/05 04:23:25;;;;;;;;;;;;;;;15.10;40.77;98127.53;5091333;28;19924;-62
2023/06/05 04:25:54;;;;;;;;;;;;;;;15.08;40.88;98123.56;5121323;27;20690;-61
2023/06/05 04:28:23;;;;;;;;;;;;;;;15.02;40.92;98125.69;5091473;28;19973;-58
2023/06/05 04:30:53;;;;;;;;;;;;;;;15.14;40.72;98124.94;5091090;28;19924;-60
2023/06/05 04:33:20;;;;;;;;;;;;;;;15.19;41.07;98124.75;5093166;28;19924;-58
2023/06/05 04:35:48;;;;;;;;;;;;;;;15.14;41.47;98116.75;5090403;28;19969;-58
2023/06/05 04:38:21;;;;;;;;;;;;;;;15.05;41.20;98114.06;5087656;28;19976;-58
2023/06/05 04:40:50;;;;;;;;;;;;;;;15.14;40.87;98112.06;5093323;28;19928;-58
2023/06/05 04:43:19;;;;;;;;;;;;;;;15.26;40.63;98113.25;5088875;28;19920;-58
2023/06/05 04:45:47;;;;;;;;;;;;;;;15.24;40.66;98116.31;5088136;28;20361;-58
2023/06/05 04:48:16;;;;;;;;;;;;;;;15.22;41.04;98112.31;5123959;27;19920;-58
2023/06/05 04:50:44;;;;;;;;;;;;;;;15.28;40.91;98111.75;5094126;28;19920;-58
2023/06/05 04:53:12;;;;;;;;;;;;;;;15.35;40.81;98109.28;5089736;28;19924;-58
2023/06/05 04:55:44;;;;;;;;;;;;;;;15.38;41.13;98108.59;5089297;28;19927;-58
2023/06/05 04:58:12;;;;;;;;;;;;;;;15.30;41.01;98117.72;5089076;28;19952;-58
2023/06/05 05:00:44;;;;;;;;;;;;;;;15.42;41.24;98114.19;5089756;28;19926;-60
2023/06/05 05:03:14;;;;;;;;;;;;;;;15.52;41.24;98116.50;5089228;28;20714;-60
2023/06/05 05:05:43;;;;;;;;;;;;;;;15.63;41.34;98114.97;5114357;27;19920;-58
2023/06/05 05:08:11;;;;;;;;;;;;;;;15.63;41.41;98122.38;5083109;28;19924;-58
2023/06/05 05:10:39;;;;;;;;;;;;;;;15.66;41.37;98117.03;5091452;28;19920;-58
2023/06/05 05:13:08;;;;;;;;;;;;;;;15.73;41.20;98108.25;5086006;28;19924;-60
2023/06/05 05:15:36;;;;;;;;;;;;;;;15.77;41.13;98105.66;5126033;27;20011;-60
2023/06/05 05:18:06;;;;;;;;;;;;;;;15.76;40.91;98117.72;5089333;28;20383;-60
2023/06/05 05:20:35;;;;;;;;;;;;;;;15.69;40.87;98118.28;5120465;27;20015;-62
2023/06/05 05:23:07;;;;;;;;;;;;;;;15.73;40.82;98110.19;5107918;28;19920;-60
2023/06/05 05:25:36;;;;;;;;;;;;;;;15.76;40.53;98104.81;5105112;28;19920;-61
2023/06/05 05:28:04;;;;;;;;;;;;;;;15.89;40.47;98102.91;5093386;28;20427;-62
2023/06/05 05:30:32;;;;;;;;;;;;;;;15.89;40.84;98106.44;5089876;28;20089;-59
2023/06/05 05:33:01;;;;;;;;;;;;;;;15.89;40.62;98113.88;5123233;27;19997;-60
2023/06/05 05:35:30;;;;;;;;;;;;;;;15.98;40.20;98107.16;5105246;27;19924;-60
2023/06/05 05:37:59;;;;;;;;;;;;;;;16.09;40.02;98112.19;5106419;28;19920;-60
2023/06/05 05:40:27;;;;;;;;;;;;;;;16.12;39.70;98106.78;5090261;28;20007;-60
2023/06/05 05:42:55;;;;;;;;;;;;;;;16.20;40.28;98111.38;5101306;28;19920;-68
2023/06/05 05:45:22;;;;;;;;;;;;;;;16.20;40.39;98119.59;5090981;28;19963;-60
2023/06/05 05:47:50;;;;;;;;;;;;;;;16.18;40.23;98121.06;5112678;27;19930;-60
2023/06/05 05:50:18;;;;;;;;;;;;;;;16.11;40.78;98129.88;5107508;28;19973;-60
2023/06/05 05:52:47;;;;;;;;;;;;;;;16.15;40.50;98122.56;5106277;28;19965;-60
2023/06/05 05:55:15;;;;;;;;;;;;;;;16.13;40.90;98130.31;5105714;28;19927;-60
2023/06/05 05:57:43;;;;;;;;;;;;;;;16.23;40.74;98131.81;5093676;28;19932;-60
2023/06/05 06:00:14;;;;;;;;;;;;;;;16.31;40.63;98130.09;5112301;28;19924;-61
2023/06/05 06:02:44;;;;;;;;;;;;;;;16.33;40.81;98127.81;5110550;28;19951;-61
2023/06/05 06:05:12;;;;;;;;;;;;;;;16.47;40.97;98125.53;5092437;28;20349;-60
2023/06/05 06:07:41;;;;;;;;;;;;;;;16.47;40.65;98134.53;5093949;28;19920;-67
2023/06/05 06:10:12;;;;;;;;;;;;;;;16.46;40.27;98123.94;5109976;28;19975;-60
2023/06/05 06:12:40;;;;;;;;;;;;;;;16.57;40.52;98116.81;5103809;28;20018;-67
2023/06/05 06:15:09;;;;;;;;;;;;;;;16.60;40.08;98116.13;5103225;27;19920;-60
2023/06/05 06:17:37;;;;;;;;;;;;;;;16.67;40.14;98113.59;5106218;27;20449;-59
2023/06/05 06:20:06;;;;;;;;;;;;;;;16.74;40.01;98116.59;5103593;28;19924;-63
2023/06/05 06:22:36;;;;;;;;;;;;;;;16.81;40.24;98115.19;5109595;28;19927;-61
2023/06/05 06:25:04;;;;;;;;;;;;;;;16.90;40.00;98118.59;5112534;28;19973;-63
2023/06/05 06:27:33;;;;;;;;;;;;;;;16.93;40.92;98112.41;5106910;28;19965;-61
2023/06/05 06:30:02;;;;;;;;;;;;;;;16.99;40.66;98117.31;5108083;28;19931;-60
2023/06/05 06:32:31;;;;;;;;;;;;;;;17.09;41.07;98113.25;5112305;28;19919;-61
2023/06/05 06:34:59;;;;;;;;;;;;;;;17.17;40.63;98111.53;5111990;28;19924;-60
2023/06/05 06:37:28;;;;;;;;;;;;;;;17.28;40.82;98113.41;5112620;28;20268;-60
2023/06/05 06:39:56;;;;;;;;;;;;;;;17.34;40.91;98110.41;5111145;27;19919;-61
2023/06/05 06:42:23;;;;;;;;;;;;;;;17.50;41.17;98125.78;5104792;28;19931;-60
2023/06/05 06:45:04;;;;;;;;;;;;;;;17.60;41.05;98123.69;5086375;28;19946;-60
2023/06/05 06:47:32;;;;;;;;;;;;;;;17.64;41.16;98124.56;5091673;28;20361;-60
2023/06/05 06:50:00;;;;;;;;;;;;;;;17.64;41.24;98117.13;5081921;28;19924;-60
2023/06/05 06:52:28;;;;;;;;;;;;;;;17.78;41.72;98123.00;5083566;28;19927;-59
2023/06/05 06:54:56;;;;;;;;;;;;;;;17.90;41.84;98124.91;5069498;28;20019;-61
2023/06/05 06:57:24;;;;;;;;;;;;;;;17.94;41.96;98131.25;5081933;28;19920;-60
2023/06/05 06:59:53;;;;;;;;;;;;;;;18.08;41.64;98125.34;5102545;28;19920;-63
2023/06/05 07:02:25;;;;;;;;;;;;;;;18.16;42.00;98118.84;5086382;28;20369;-60
2023/06/05 07:04:54;;;;;;;;;;;;;;;18.19;41.50;98117.34;5083397;28;20006;-61
2023/06/05 07:07:22;;;;;;;;;;;;;;;18.26;41.89;98118.28;5104451;28;19945;-60
2023/06/05 07:09:51;;;;;;;;;;;;;;;18.36;41.61;98121.66;5084594;28;19994;-62
2023/06/05 07:12:19;;;;;;;;;;;;;;;18.45;41.67;98112.06;5090389;28;19946;-61
2023/06/05 07:14:47;;;;;;;;;;;;;;;18.46;41.49;98112.88;5066578;28;20268;-60
2023/06/05 07:17:14;;;;;;;;;;;;;;;18.55;41.75;98113.47;5080565;28;19970;-60
2023/06/05 07:19:44;;;;;;;;;;;;;;;18.69;41.55;98102.78;5088464;28;20335;-60
2023/06/05 07:22:15;;;;;;;;;;;;;;;18.79;41.56;98107.72;5086707;28;20422;-60
2023/06/05 07:24:42;;;;;;;;;;;;;;;18.90;41.46;98107.16;5099830;28;19939;-62
2023/06/05 07:27:10;;;;;;;;;;;;;;;19.01;41.55;98108.97;5102011;28;19927;-65
2023/06/05 07:29:38;;;;;;;;;;;;;;;19.05;41.52;98109.06;5087736;28;20002;-61
2023/06/05 07:32:07;;;;;;;;;;;;;;;19.07;41.51;98104.00;5086825;28;19924;-61
2023/06/05 07:34:35;;;;;;;;;;;;;;;19.11;41.73;98108.41;5091255;28;20007;-60
2023/06/05 07:37:04;;;;;;;;;;;;;;;19.08;41.84;98102.84;5107804;28;20282;-65
2023/06/05 07:39:32;;;;;;;;;;;;;;;19.17;42.23;98108.91;5082952;28;19920;-60
2023/06/05 07:42:00;;;;;;;;;;;;;;;19.27;41.67;98100.06;5089402;28;19963;-62
2023/06/05 07:44:30;;;;;;;;;;;;;;;19.34;41.57;98111.22;5114692;28;20011;-62
2023/06/05 07:47:01;;;;;;;;;;;;;;;19.35;41.75;98104.56;5106789;28;19951;-60
2023/06/05 07:49:30;;;;;;;;;;;;;;;19.42;41.56;98103.88;5107949;28;19920;-60
2023/06/05 07:51:59;;;;;;;;;;;;;;;19.53;41.29;98098.56;5100479;28;19920;-71
2023/06/05 07:54:29;;;;;;;;;;;;;;;19.58;41.58;98095.53;5113097;28;19919;-61
2023/06/05 07:56:58;;;;;;;;;;;;;;;19.61;41.05;98098.38;5112681;27;19939;-60
2023/06/05 07:59:27;;;;;;;;;;;;;;;19.70;40.99;98100.88;5115735;28;19920;-62
2023/06/05 08:01:56;;;;;;;;;;;;;;;19.83;41.14;98101.50;5110438;28;19926;-61
2023/06/05 08:04:27;;;;;;;;;;;;;;;19.89;41.04;98103.59;5115956;27;19932;-60
2023/06/05 08:06:55;;;;;;;;;;;;;;;19.87;40.93;98100.41;5112738;28;19969;-62
2023/06/05 08:09:24;;;;;;;;;;;;;;;19.92;41.38;98096.56;5112845;28;19972;-60
2023/06/05 08:11:53;;;;;;;;;;;;;;;19.99;41.47;98095.88;5110703;28;19963;-60
2023/06/05 08:14:22;;;;;;;;;;;;;;;19.99;40.86;98104.94;5114312;27;19920;-65
2023/06/05 08:16:50;;;;;;;;;;;;;;;20.08;40.60;98093.63;5115422;28;19928;-59
2023/06/05 08:19:17;;;;;;;;;;;;;;;20.13;40.35;98107.13;5114285;28;19958;-60
2023/06/05 08:21:48;;;;;;;;;;;;;;;20.15;40.64;98089.06;5111831;28;19919;-61
2023/06/05 08:24:18;;;;;;;;;;;;;;;20.21;40.26;98094.25;5104639;28;20028;-60
2023/06/05 08:26:46;;;;;;;;;;;;;;;20.27;40.49;98090.78;5124508;27;19924;-60
2023/06/05 08:29:15;;;;;;;;;;;;;;;20.34;40.44;98096.41;5108344;28;19919;-70
2023/06/05 08:31:43;;;;;;;;;;;;;;;20.36;40.39;98082.28;5110907;27;19926;-60
2023/06/05 08:34:11;;;;;;;;;;;;;;;20.39;40.86;98087.03;5105423;27;19927;-60
2023/06/05 08:36:39;;;;;;;;;;;;;;;20.35;40.66;98081.47;5112846;28;19924;-62
2023/06/05 08:39:07;;;;;;;;;;;;;;;20.46;40.45;98080.84;5112591;28;19924;-60
2023/06/05 08:41:37;;;;;;;;;;;;;;;20.55;40.89;98082.16;5118086;27;19928;-60
2023/06/05 08:44:05;;;;;;;;;;;;;;;20.61;41.13;98077.94;5106801;28;19930;-61
2023/06/05 08:46:35;;;;;;;;;;;;;;;20.73;41.23;98084.41;5096025;28;19959;-60
2023/06/05 08:49:03;;;;;;;;;;;;;;;20.79;41.25;98088.41;5113779;28;19972;-61
2023/06/05 08:51:31;;;;;;;;;;;;;;;20.88;41.75;98081.44;5111847;28;19920;-60
2023/06/05 08:54:02;;;;;;;;;;;;;;;20.88;42.24;98078.69;5097881;28;19928;-62
2023/06/05 08:56:31;;;;;;;;;;;;;;;20.91;42.48;98077.13;5123705;27;19926;-64
2023/06/05 08:58:59;;;;;;;;;;;;;;;20.88;42.34;98089.72;5109831;27;19932;-60
2023/06/05 09:01:27;;;;;;;;;;;;;;;20.88;42.15;98086.97;5111754;27;19920;-61
2023/06/05 09:03:56;;;;;;;;;;;;;;;20.86;42.08;98089.28;5113128;28;19920;-65
2023/06/05 09:06:24;;;;;;;;;;;;;;;20.90;41.74;98081.06;5103525;28;19973;-60
2023/06/05 09:08:52;;;;;;;;;;;;;;;20.95;42.17;98075.22;5099520;27;19955;-59
2023/06/05 09:11:21;;;;;;;;;;;;;;;21.00;42.00;98083.16;5096564;28;20375;-61
2023/06/05 09:13:48;;;;;;;;;;;;;;;21.00;41.60;98085.13;5093499;28;19967;-59
2023/06/05 09:16:16;;;;;;;;;;;;;;;21.00;41.64;98085.13;5104534;28;19923;-60
2023/06/05 09:18:52;;;;;;;;;;;;;;;20.90;41.78;98083.81;5111795;27;20064;-60
2023/06/05 09:21:29;;;;;;;;;;;;;;;20.97;41.69;98072.84;5105572;28;19935;-60
2023/06/05 09:24:11;;;;;;;;;;;;;;;21.06;42.36;98075.34;5099699;27;19924;-63
2023/06/05 09:26:50;;;;;;;;;;;;;;;21.07;41.72;98071.41;5123129;27;19920;-60
2023/06/05 09:29:25;;;;;;;;;;;;;;;21.13;41.54;98075.41;5106963;28;19919;-60
2023/06/05 09:31:54;;;;;;;;;;;;;;;21.17;41.86;98077.03;5110650;27;19919;-59
2023/06/05 09:34:22;;;;;;;;;;;;;;;21.13;41.69;98070.69;5109277;27;19955;-65
2023/06/05 09:36:51;;;;;;;;;;;;;;;21.19;41.39;98073.91;5109353;27;19953;-59
2023/06/05 09:39:20;;;;;;;;;;;;;;;21.25;41.53;98074.34;5121441;27;19927;-59
2023/06/05 09:41:51;;;;;;;;;;;;;;;21.28;41.20;98065.31;5115979;27;19920;-60
2023/06/05 09:44:19;;;;;;;;;;;;;;;21.35;41.81;98068.19;5116498;27;19966;-64
2023/06/05 09:46:53;;;;;;;;;;;;;;;21.37;41.07;98058.34;5101858;27;19935;-59
2023/06/05 09:49:22;;;;;;;;;;;;;;;21.42;41.83;98069.06;5094265;28;20018;-62
2023/06/05 09:51:50;;;;;;;;;;;;;;;21.47;41.46;98062.41;5112979;27;20376;-60
2023/06/05 09:54:19;;;;;;;;;;;;;;;21.50;40.93;98055.31;5110501;28;20269;-59
2023/06/05 09:56:49;;;;;;;;;;;;;;;21.53;40.99;98054.56;5105783;28;20203;-60
2023/06/05 09:59:20;;;;;;;;;;;;;;;21.41;40.79;98053.66;5139210;27;20368;-59
2023/06/05 10:01:49;;;;;;;;;;;;;;;21.46;40.89;98058.03;5099873;28;19920;-61
2023/06/05 10:04:17;;;;;;;;;;;;;;;21.52;40.80;98058.47;5092361;28;20376;-73
2023/06/05 10:06:45;;;;;;;;;;;;;;;21.58;41.95;98059.75;5112197;28;19919;-60
2023/06/05 10:09:14;;;;;;;;;;;;;;;21.58;40.64;98054.22;5111796;28;19923;-65
2023/06/05 10:11:43;;;;;;;;;;;;;;;21.60;41.00;98060.16;5128003;27;19968;-63
2023/06/05 10:14:11;;;;;;;;;;;;;;;21.63;40.70;98049.13;5112032;28;20014;-60
2023/06/05 10:16:39;;;;;;;;;;;;;;;21.74;41.39;98053.97;5100451;27;19923;-60
2023/06/05 10:19:07;;;;;;;;;;;;;;;21.82;40.82;98047.31;5112198;28;19923;-62
2023/06/05 10:21:35;;;;;;;;;;;;;;;21.66;40.45;98050.31;5110260;28;19919;-61
2023/06/05 10:24:03;;;;;;;;;;;;;;;21.80;40.85;98044.94;5089498;28;19919;-60
2023/06/05 10:26:51;;;;;;;;;;;;;;;21.84;40.84;98047.72;5098397;28;19926;-59
2023/06/05 10:29:23;;;;;;;;;;;;;;;21.94;40.91;98039.53;5112307;28;20008;-60
2023/06/05 10:31:53;;;;;;;;;;;;;;;22.04;40.90;98034.44;5112263;28;19919;-61
2023/06/05 10:34:28;;;;;;;;;;;;;;;22.15;41.15;98033.34;5111665;28;19951;-60
2023/06/05 10:37:21;;;;;;;;;;;;;;;22.06;40.23;98032.88;5108046;28;19920;-61
2023/06/05 10:39:50;;;;;;;;;;;;;;;22.19;40.30;98042.47;5097828;28;19920;-60
2023/06/05 10:42:25;;;;;;;;;;;;;;;22.17;40.44;98031.03;5105938;28;19923;-62
2023/06/05 10:44:53;;;;;;;;;;;;;;;22.23;40.62;98031.44;5101393;28;20019;-61
2023/06/05 10:47:41;;;;;;;;;;;;;;;22.11;39.87;98035.31;5107065;28;20407;-61
2023/06/05 10:50:26;;;;;;;;;;;;;;;22.05;40.41;98028.53;5103591;28;20241;-61
2023/06/05 10:52:55;;;;;;;;;;;;;;;22.14;40.69;98028.22;5108612;28;20380;-60
2023/06/05 10:55:23;;;;;;;;;;;;;;;22.26;40.92;98029.88;5107571;27;20529;-60
2023/06/05 10:58:09;;;;;;;;;;;;;;;22.37;41.15;98017.72;5111565;28;19919;-61
2023/06/05 11:00:37;;;;;;;;;;;;;;;22.44;40.64;98009.44;5108746;28;19944;-61
2023/06/05 11:03:07;;;;;;;;;;;;;;;22.58;40.59;98016.22;5111528;28;19923;-59
2023/06/05 11:05:35;;;;;;;;;;;;;;;22.61;39.52;98019.00;5110995;28;20391;-61
2023/06/05 11:08:15;;;;;;;;;;;;;;;22.57;39.63;98004.34;5111213;28;20414;-62
2023/06/05 11:11:02;;;;;;;;;;;;;;;22.60;40.47;98011.09;5107521;28;20268;-61
2023/06/05 11:13:44;;;;;;;;;;;;;;;22.58;39.76;98013.44;5124044;28;19923;-61
2023/06/05 11:16:27;;;;;;;;;;;;;;;22.44;39.69;98014.97;5112025;28;19941;-60
2023/06/05 11:18:55;;;;;;;;;;;;;;;22.30;40.02;98014.09;5099074;28;19927;-65
2023/06/05 11:21:23;;;;;;;;;;;;;;;22.28;39.99;98008.94;5099343;28;20019;-62
2023/06/05 11:24:10;;;;;;;;;;;;;;;22.33;40.69;98011.34;5100587;28;19920;-61
2023/06/05 11:26:42;;;;;;;;;;;;;;;22.46;40.25;98006.28;5100176;28;19930;-63
2023/06/05 11:29:15;;;;;;;;;;;;;;;22.56;40.88;98005.53;5117624;27;20006;-59
2023/06/05 11:31:45;;;;;;;;;;;;;;;22.53;40.63;98003.56;5101555;28;20018;-60
2023/06/05 11:34:14;;;;;;;;;;;;;;;22.42;41.03;98002.69;5122914;27;19971;-59
2023/06/05 11:36:41;;;;;;;;;;;;;;;22.39;41.15;98001.50;5109812;28;19919;-60
2023/06/05 11:39:10;;;;;;;;;;;;;;;22.24;41.10;97994.28;5113866;28;19924;-63
2023/06/05 11:41:43;;;;;;;;;;;;;;;22.18;41.37;97991.09;5102457;28;20005;-60
2023/06/05 11:44:12;;;;;;;;;;;;;;;22.20;41.65;97993.47;5105863;28;20019;-60
2023/06/05 11:46:40;;;;;;;;;;;;;;;22.23;41.97;97985.19;5111554;28;19951;-62
2023/06/05 11:49:10;;;;;;;;;;;;;;;22.26;41.49;97980.84;5114952;28;19928;-60
2023/06/05 11:51:38;;;;;;;;;;;;;;;22.20;41.89;97987.94;5112848;28;20801;-62
2023/06/05 11:54:14;;;;;;;;;;;;;;;22.18;42.04;97982.00;5121580;27;19954;-62
2023/06/05 11:56:48;;;;;;;;;;;;;;;22.09;42.08;97981.50;5114824;28;19986;-60
2023/06/05 11:59:16;;;;;;;;;;;;;;;;;;5114498;28;19920;-61
2023/06/05 12:01:45;;;;;;;;;;;;;;;22.13;42.13;97974.84;5110992;27;19955;-60
2023/06/05 12:04:15;;;;;;;;;;;;;;;22.22;41.49;97975.31;5119150;27;19926;-61
2023/06/05 12:06:47;;;;;;;;;;;;;;;22.36;41.33;97969.03;5124696;27;19923;-60
2023/06/05 12:09:16;;;;;;;;;;;;;;;22.42;41.39;97972.22;5104789;28;19946;-63
2023/06/05 12:11:44;;;;;;;;;;;;;;;22.39;41.62;97962.75;5113732;28;19945;-62
2023/06/05 12:14:12;;;;;;;;;;;;;;;22.30;41.80;97956.75;5109822;28;19927;-60
2023/06/05 12:16:43;;;;;;;;;;;;;;;22.28;41.67;97956.38;5109841;28;19920;-67
2023/06/05 12:19:16;;;;;;;;;;;;;;;22.29;40.98;97957.94;5097317;28;20014;-62
2023/06/05 12:21:45;;;;;;;;;;;;;;;22.36;41.08;97952.44;5109762;28;19988;-60
2023/06/05 12:24:13;;;;;;;;;;;;;;;22.44;41.35;97959.59;5111589;28;20402;-60
2023/06/05 12:26:53;;;;;;;;;;;;;;;22.68;40.47;97962.84;5111439;28;19924;-63
2023/06/05 12:29:22;;;;;;;;;;;;;;;22.72;40.23;97955.34;5114723;27;19920;-60
2023/06/05 12:31:50;;;;;;;;;;;;;;;22.65;40.65;97960.88;5103681;27;19969;-59
2023/06/05 12:34:22;;;;;;;;;;;;;;;22.48;40.44;97956.84;5105647;27;19928;-60
2023/06/05 12:36:50;;;;;;;;;;;;;;;22.44;40.43;97954.06;5104107;28;19920;-60
2023/06/05 12:39:18;;;;;;;;;;;;;;;22.49;39.61;97947.38;5113622;27;19926;-60
2023/06/05 12:41:48;;;;;;;;;;;;;;;22.58;39.85;97936.69;5100636;28;19980;-60
2023/06/05 12:44:17;;;;;;;;;;;;;;;22.77;39.81;97948.66;5103824;28;19921;-61
2023/06/05 12:46:45;;;;;;;;;;;;;;;22.90;38.37;97947.91;5113929;28;19924;-61
2023/06/05 12:49:13;;;;;;;;;;;;;;;22.88;38.62;97941.19;5095728;28;20027;-59
2023/06/05 12:51:43;;;;;;;;;;;;;;;22.86;38.78;97932.47;5092706;28;19920;-62
2023/06/05 12:54:13;;;;;;;;;;;;;;;22.92;38.97;97934.47;5088341;28;19932;-61
2023/06/05 12:56:45;;;;;;;;;;;;;;;23.02;39.13;97932.13;5076168;28;20309;-60
2023/06/05 12:59:13;;;;;;;;;;;;;;;23.08;38.87;97927.78;5075862;28;19920;-59
2023/06/05 13:01:41;;;;;;;;;;;;;;;23.19;38.78;97928.56;5109953;28;19920;-62